Zion, Mississippi
Current Conditions -  °F | °C
As of 9:53 AM on Wednesday 22 Oct 2014 (Local Time) from KTUP Reporting Station
Clear Clear  
Wind Chill: 14°   Ceiling: Unl
Heat Index: 14°   Visibility: 10mi
Dew Point:   Wind: 9mph
Humidity: 56%   Direction: 90°E
Pressure: 30.23"   Gusts: NA
Location:  34.1762°N, 88.9612°W
Report Text: KTUP 221453Z 09008KT 10SM CLR 14/06 A3023 RMK AO2 SLP234 T01440056 53017
Loading
Personal Weather Stations






























Interactive Weather Map
Tropical Storm Tracking
New forecast layout! Learn more

10-Day Weather Forecast

Advertisements
Track Severe Weather on mobile